sensor_id;sensor_type;location;lat;lon;timestamp;temperature;humidity
44517;DHT22;30223;17.182;-96.766;2022-07-06T00:02:19;26.30;54.30
44517;DHT22;30223;17.182;-96.766;2022-07-06T00:04:45;26.30;53.10
44517;DHT22;30223;17.182;-96.766;2022-07-06T00:07:12;26.30;54.30
44517;DHT22;30223;17.182;-96.766;2022-07-06T00:09:41;26.20;54.00
44517;DHT22;30223;17.182;-96.766;2022-07-06T00:12:08;26.20;54.50
44517;DHT22;30223;17.182;-96.766;2022-07-06T00:14:35;26.20;54.90
44517;DHT22;30223;17.182;-96.766;2022-07-06T00:17:02;26.20;54.70
44517;DHT22;30223;17.182;-96.766;2022-07-06T00:19:29;26.20;54.40
44517;DHT22;30223;17.182;-96.766;2022-07-06T00:21:55;26.20;54.00
44517;DHT22;30223;17.182;-96.766;2022-07-06T00:24:22;26.20;54.00
44517;DHT22;30223;17.182;-96.766;2022-07-06T00:26:49;26.20;54.00
44517;DHT22;30223;17.182;-96.766;2022-07-06T00:29:15;26.20;53.80
44517;DHT22;30223;17.182;-96.766;2022-07-06T00:31:42;26.20;54.40
44517;DHT22;30223;17.182;-96.766;2022-07-06T00:34:08;26.20;54.20
44517;DHT22;30223;17.182;-96.766;2022-07-06T00:36:35;26.10;53.80
44517;DHT22;30223;17.182;-96.766;2022-07-06T00:39:02;26.10;53.80
44517;DHT22;30223;17.182;-96.766;2022-07-06T00:41:28;26.00;53.10
44517;DHT22;30223;17.182;-96.766;2022-07-06T00:43:56;26.00;53.80
44517;DHT22;30223;17.182;-96.766;2022-07-06T00:46:31;26.00;53.70
44517;DHT22;30223;17.182;-96.766;2022-07-06T00:48:59;26.00;53.60
44517;DHT22;30223;17.182;-96.766;2022-07-06T00:51:29;26.00;53.70
44517;DHT22;30223;17.182;-96.766;2022-07-06T00:53:59;26.00;53.60
44517;DHT22;30223;17.182;-96.766;2022-07-06T00:56:26;26.00;53.50
44517;DHT22;30223;17.182;-96.766;2022-07-06T00:58:55;26.00;53.30
44517;DHT22;30223;17.182;-96.766;2022-07-06T01:01:21;26.00;53.20
44517;DHT22;30223;17.182;-96.766;2022-07-06T01:03:48;26.00;53.40
44517;DHT22;30223;17.182;-96.766;2022-07-06T01:06:15;26.00;53.20
44517;DHT22;30223;17.182;-96.766;2022-07-06T01:08:42;26.00;52.80
44517;DHT22;30223;17.182;-96.766;2022-07-06T01:11:08;26.00;52.40
44517;DHT22;30223;17.182;-96.766;2022-07-06T01:13:35;26.00;52.80
44517;DHT22;30223;17.182;-96.766;2022-07-06T01:16:01;25.90;52.30
44517;DHT22;30223;17.182;-96.766;2022-07-06T01:18:28;25.90;52.00
44517;DHT22;30223;17.182;-96.766;2022-07-06T01:21:12;25.90;52.50
44517;DHT22;30223;17.182;-96.766;2022-07-06T01:23:40;25.90;52.50
44517;DHT22;30223;17.182;-96.766;2022-07-06T01:26:12;25.90;52.90
44517;DHT22;30223;17.182;-96.766;2022-07-06T01:28:40;25.80;53.70
44517;DHT22;30223;17.182;-96.766;2022-07-06T01:31:23;25.80;53.40
44517;DHT22;30223;17.182;-96.766;2022-07-06T01:33:52;25.70;53.60
44517;DHT22;30223;17.182;-96.766;2022-07-06T01:36:19;25.70;53.70
44517;DHT22;30223;17.182;-96.766;2022-07-06T01:38:47;25.70;53.90
44517;DHT22;30223;17.182;-96.766;2022-07-06T01:41:15;25.70;54.00
44517;DHT22;30223;17.182;-96.766;2022-07-06T01:43:42;25.70;54.10
44517;DHT22;30223;17.182;-96.766;2022-07-06T01:46:09;25.60;54.20
44517;DHT22;30223;17.182;-96.766;2022-07-06T01:48:36;25.60;54.30
44517;DHT22;30223;17.182;-96.766;2022-07-06T01:51:03;25.60;54.50
44517;DHT22;30223;17.182;-96.766;2022-07-06T01:53:30;25.60;54.60
44517;DHT22;30223;17.182;-96.766;2022-07-06T01:55:57;25.60;54.70
44517;DHT22;30223;17.182;-96.766;2022-07-06T01:58:23;25.50;54.70
44517;DHT22;30223;17.182;-96.766;2022-07-06T02:00:50;25.50;54.90
44517;DHT22;30223;17.182;-96.766;2022-07-06T02:03:17;25.50;55.00
44517;DHT22;30223;17.182;-96.766;2022-07-06T02:05:43;25.50;55.00
44517;DHT22;30223;17.182;-96.766;2022-07-06T02:08:10;25.50;55.20
44517;DHT22;30223;17.182;-96.766;2022-07-06T02:10:37;25.50;55.20
44517;DHT22;30223;17.182;-96.766;2022-07-06T02:13:03;25.50;55.30
44517;DHT22;30223;17.182;-96.766;2022-07-06T02:15:30;25.50;55.40
44517;DHT22;30223;17.182;-96.766;2022-07-06T02:17:58;25.50;55.50
44517;DHT22;30223;17.182;-96.766;2022-07-06T02:20:25;25.40;55.50
44517;DHT22;30223;17.182;-96.766;2022-07-06T02:22:52;25.40;55.60
44517;DHT22;30223;17.182;-96.766;2022-07-06T02:25:18;25.40;55.60
44517;DHT22;30223;17.182;-96.766;2022-07-06T02:27:45;25.40;55.60
44517;DHT22;30223;17.182;-96.766;2022-07-06T02:30:11;25.40;55.70
44517;DHT22;30223;17.182;-96.766;2022-07-06T02:32:38;25.40;55.80
44517;DHT22;30223;17.182;-96.766;2022-07-06T02:35:05;25.40;55.80
44517;DHT22;30223;17.182;-96.766;2022-07-06T02:37:32;25.40;55.90
44517;DHT22;30223;17.182;-96.766;2022-07-06T02:39:58;25.40;56.00
44517;DHT22;30223;17.182;-96.766;2022-07-06T02:42:25;25.40;56.00
44517;DHT22;30223;17.182;-96.766;2022-07-06T02:44:54;25.30;56.00
44517;DHT22;30223;17.182;-96.766;2022-07-06T02:47:21;25.30;56.10
44517;DHT22;30223;17.182;-96.766;2022-07-06T02:49:48;25.30;56.10
44517;DHT22;30223;17.182;-96.766;2022-07-06T02:52:14;25.30;56.20
44517;DHT22;30223;17.182;-96.766;2022-07-06T02:54:41;25.30;56.30
44517;DHT22;30223;17.182;-96.766;2022-07-06T02:57:07;25.30;56.30
44517;DHT22;30223;17.182;-96.766;2022-07-06T02:59:34;25.30;56.40
44517;DHT22;30223;17.182;-96.766;2022-07-06T03:02:03;25.30;56.40
44517;DHT22;30223;17.182;-96.766;2022-07-06T03:04:30;25.30;56.50
44517;DHT22;30223;17.182;-96.766;2022-07-06T03:06:57;25.20;56.50
44517;DHT22;30223;17.182;-96.766;2022-07-06T03:09:23;25.20;56.60
44517;DHT22;30223;17.182;-96.766;2022-07-06T03:11:50;25.20;56.60
44517;DHT22;30223;17.182;-96.766;2022-07-06T03:14:17;25.20;56.70
44517;DHT22;30223;17.182;-96.766;2022-07-06T03:16:43;25.20;56.70
44517;DHT22;30223;17.182;-96.766;2022-07-06T03:19:10;25.20;56.80
44517;DHT22;30223;17.182;-96.766;2022-07-06T03:21:36;25.20;56.90
44517;DHT22;30223;17.182;-96.766;2022-07-06T03:24:04;25.10;56.90
44517;DHT22;30223;17.182;-96.766;2022-07-06T03:26:30;25.10;56.90
44517;DHT22;30223;17.182;-96.766;2022-07-06T03:28:57;25.10;56.90
44517;DHT22;30223;17.182;-96.766;2022-07-06T03:31:23;25.20;57.10
44517;DHT22;30223;17.182;-96.766;2022-07-06T03:33:51;25.10;57.00
44517;DHT22;30223;17.182;-96.766;2022-07-06T03:36:18;25.10;57.10
44517;DHT22;30223;17.182;-96.766;2022-07-06T03:38:45;25.10;57.20
44517;DHT22;30223;17.182;-96.766;2022-07-06T03:41:11;25.10;57.10
44517;DHT22;30223;17.182;-96.766;2022-07-06T03:43:38;25.10;57.20
44517;DHT22;30223;17.182;-96.766;2022-07-06T03:46:05;25.10;57.30
44517;DHT22;30223;17.182;-96.766;2022-07-06T03:48:31;25.00;57.20
44517;DHT22;30223;17.182;-96.766;2022-07-06T03:50:58;25.00;57.30
44517;DHT22;30223;17.182;-96.766;2022-07-06T03:53:24;25.00;57.20
44517;DHT22;30223;17.182;-96.766;2022-07-06T03:55:51;25.00;57.30
44517;DHT22;30223;17.182;-96.766;2022-07-06T03:58:35;25.00;57.40
44517;DHT22;30223;17.182;-96.766;2022-07-06T04:01:02;25.00;57.50
44517;DHT22;30223;17.182;-96.766;2022-07-06T04:03:29;25.00;57.50
44517;DHT22;30223;17.182;-96.766;2022-07-06T04:05:55;25.00;58.20
44517;DHT22;30223;17.182;-96.766;2022-07-06T04:08:22;25.00;57.60
44517;DHT22;30223;17.182;-96.766;2022-07-06T04:10:48;25.00;57.70
44517;DHT22;30223;17.182;-96.766;2022-07-06T04:13:15;24.90;57.70
44517;DHT22;30223;17.182;-96.766;2022-07-06T04:15:42;24.90;57.70
44517;DHT22;30223;17.182;-96.766;2022-07-06T04:18:08;24.90;57.70
44517;DHT22;30223;17.182;-96.766;2022-07-06T04:20:35;24.90;57.70
44517;DHT22;30223;17.182;-96.766;2022-07-06T04:23:02;24.90;57.80
44517;DHT22;30223;17.182;-96.766;2022-07-06T04:25:28;24.90;57.80
44517;DHT22;30223;17.182;-96.766;2022-07-06T04:27:55;24.80;57.70
44517;DHT22;30223;17.182;-96.766;2022-07-06T04:30:21;24.80;57.70
44517;DHT22;30223;17.182;-96.766;2022-07-06T04:32:48;24.80;57.80
44517;DHT22;30223;17.182;-96.766;2022-07-06T04:35:15;24.80;57.80
44517;DHT22;30223;17.182;-96.766;2022-07-06T04:37:41;24.80;57.80
44517;DHT22;30223;17.182;-96.766;2022-07-06T04:40:08;24.80;57.70
44517;DHT22;30223;17.182;-96.766;2022-07-06T04:42:35;24.80;57.80
44517;DHT22;30223;17.182;-96.766;2022-07-06T04:45:03;24.80;57.80
44517;DHT22;30223;17.182;-96.766;2022-07-06T04:47:30;24.80;57.80
44517;DHT22;30223;17.182;-96.766;2022-07-06T04:49:56;24.80;57.80
44517;DHT22;30223;17.182;-96.766;2022-07-06T04:52:23;24.70;57.80
44517;DHT22;30223;17.182;-96.766;2022-07-06T04:54:50;24.70;57.80
44517;DHT22;30223;17.182;-96.766;2022-07-06T04:57:16;24.70;57.90
44517;DHT22;30223;17.182;-96.766;2022-07-06T04:59:43;24.70;57.80
44517;DHT22;30223;17.182;-96.766;2022-07-06T05:02:09;24.70;57.90
44517;DHT22;30223;17.182;-96.766;2022-07-06T05:04:36;24.70;57.90
44517;DHT22;30223;17.182;-96.766;2022-07-06T05:07:03;24.70;57.90
44517;DHT22;30223;17.182;-96.766;2022-07-06T05:09:29;24.70;57.80
44517;DHT22;30223;17.182;-96.766;2022-07-06T05:11:56;24.60;57.80
44517;DHT22;30223;17.182;-96.766;2022-07-06T05:14:22;24.60;57.90
44517;DHT22;30223;17.182;-96.766;2022-07-06T05:16:49;24.60;57.90
44517;DHT22;30223;17.182;-96.766;2022-07-06T05:19:16;24.60;57.90
44517;DHT22;30223;17.182;-96.766;2022-07-06T05:21:42;24.60;57.90
44517;DHT22;30223;17.182;-96.766;2022-07-06T05:24:09;24.60;57.90
44517;DHT22;30223;17.182;-96.766;2022-07-06T05:26:35;24.60;58.00
44517;DHT22;30223;17.182;-96.766;2022-07-06T05:29:02;24.60;58.00
44517;DHT22;30223;17.182;-96.766;2022-07-06T05:31:29;24.60;58.00
44517;DHT22;30223;17.182;-96.766;2022-07-06T05:33:55;24.50;58.10
44517;DHT22;30223;17.182;-96.766;2022-07-06T05:36:22;24.60;58.70
44517;DHT22;30223;17.182;-96.766;2022-07-06T05:38:49;24.50;58.60
44517;DHT22;30223;17.182;-96.766;2022-07-06T05:41:15;24.50;58.00
44517;DHT22;30223;17.182;-96.766;2022-07-06T05:43:42;24.50;58.00
44517;DHT22;30223;17.182;-96.766;2022-07-06T05:46:08;24.50;58.10
44517;DHT22;30223;17.182;-96.766;2022-07-06T05:48:35;24.50;58.10
44517;DHT22;30223;17.182;-96.766;2022-07-06T05:51:20;24.50;58.10
44517;DHT22;30223;17.182;-96.766;2022-07-06T05:53:46;24.50;58.20
44517;DHT22;30223;17.182;-96.766;2022-07-06T05:56:14;24.50;58.20
44517;DHT22;30223;17.182;-96.766;2022-07-06T05:58:40;24.50;58.20
44517;DHT22;30223;17.182;-96.766;2022-07-06T06:01:07;24.50;58.20
44517;DHT22;30223;17.182;-96.766;2022-07-06T06:03:34;24.40;58.20
44517;DHT22;30223;17.182;-96.766;2022-07-06T06:06:01;24.40;58.20
44517;DHT22;30223;17.182;-96.766;2022-07-06T06:08:28;24.40;58.30
44517;DHT22;30223;17.182;-96.766;2022-07-06T06:10:54;24.40;58.30
44517;DHT22;30223;17.182;-96.766;2022-07-06T06:13:21;24.40;58.40
44517;DHT22;30223;17.182;-96.766;2022-07-06T06:15:47;24.40;58.40
44517;DHT22;30223;17.182;-96.766;2022-07-06T06:18:14;24.30;58.30
44517;DHT22;30223;17.182;-96.766;2022-07-06T06:20:43;24.40;58.40
44517;DHT22;30223;17.182;-96.766;2022-07-06T06:23:09;24.30;58.30
44517;DHT22;30223;17.182;-96.766;2022-07-06T06:25:38;24.30;58.40
44517;DHT22;30223;17.182;-96.766;2022-07-06T06:28:07;24.30;58.40
44517;DHT22;30223;17.182;-96.766;2022-07-06T06:30:34;24.30;58.40
44517;DHT22;30223;17.182;-96.766;2022-07-06T06:33:17;24.30;58.40
44517;DHT22;30223;17.182;-96.766;2022-07-06T06:35:48;24.30;58.40
44517;DHT22;30223;17.182;-96.766;2022-07-06T06:38:16;24.30;58.50
44517;DHT22;30223;17.182;-96.766;2022-07-06T06:40:43;24.30;58.50
44517;DHT22;30223;17.182;-96.766;2022-07-06T06:43:10;24.30;58.50
44517;DHT22;30223;17.182;-96.766;2022-07-06T06:45:37;24.30;58.50
44517;DHT22;30223;17.182;-96.766;2022-07-06T06:48:04;24.30;58.50
44517;DHT22;30223;17.182;-96.766;2022-07-06T06:50:30;24.30;58.50
44517;DHT22;30223;17.182;-96.766;2022-07-06T06:52:57;24.30;58.60
44517;DHT22;30223;17.182;-96.766;2022-07-06T06:55:24;24.20;58.50
44517;DHT22;30223;17.182;-96.766;2022-07-06T06:57:50;24.20;58.50
44517;DHT22;30223;17.182;-96.766;2022-07-06T07:00:17;24.20;58.50
44517;DHT22;30223;17.182;-96.766;2022-07-06T07:02:45;24.20;58.50
44517;DHT22;30223;17.182;-96.766;2022-07-06T07:05:12;24.20;58.50
44517;DHT22;30223;17.182;-96.766;2022-07-06T07:07:39;24.20;58.50
44517;DHT22;30223;17.182;-96.766;2022-07-06T07:10:07;24.20;58.50
44517;DHT22;30223;17.182;-96.766;2022-07-06T07:12:34;24.20;58.50
44517;DHT22;30223;17.182;-96.766;2022-07-06T07:15:01;24.20;58.60
44517;DHT22;30223;17.182;-96.766;2022-07-06T07:17:27;24.20;58.60
44517;DHT22;30223;17.182;-96.766;2022-07-06T07:19:54;24.20;58.60
44517;DHT22;30223;17.182;-96.766;2022-07-06T07:22:23;24.20;58.50
44517;DHT22;30223;17.182;-96.766;2022-07-06T07:24:50;24.10;58.50
44517;DHT22;30223;17.182;-96.766;2022-07-06T07:27:17;24.10;58.50
44517;DHT22;30223;17.182;-96.766;2022-07-06T07:29:43;24.10;58.50
44517;DHT22;30223;17.182;-96.766;2022-07-06T07:32:10;24.10;58.60
44517;DHT22;30223;17.182;-96.766;2022-07-06T07:34:36;24.10;58.50
44517;DHT22;30223;17.182;-96.766;2022-07-06T07:37:03;24.10;58.60
44517;DHT22;30223;17.182;-96.766;2022-07-06T07:39:30;24.10;58.60
44517;DHT22;30223;17.182;-96.766;2022-07-06T07:41:56;24.10;58.60
44517;DHT22;30223;17.182;-96.766;2022-07-06T07:44:23;24.10;58.60
44517;DHT22;30223;17.182;-96.766;2022-07-06T07:46:51;24.10;58.60
44517;DHT22;30223;17.182;-96.766;2022-07-06T07:49:18;24.00;58.50
44517;DHT22;30223;17.182;-96.766;2022-07-06T07:51:48;24.10;58.60
44517;DHT22;30223;17.182;-96.766;2022-07-06T07:54:14;24.10;58.60
44517;DHT22;30223;17.182;-96.766;2022-07-06T07:56:41;24.00;58.50
44517;DHT22;30223;17.182;-96.766;2022-07-06T07:59:08;24.00;58.50
44517;DHT22;30223;17.182;-96.766;2022-07-06T08:01:35;24.00;58.50
44517;DHT22;30223;17.182;-96.766;2022-07-06T08:04:02;24.00;58.50
44517;DHT22;30223;17.182;-96.766;2022-07-06T08:06:29;24.00;58.50
44517;DHT22;30223;17.182;-96.766;2022-07-06T08:08:55;24.00;58.50
44517;DHT22;30223;17.182;-96.766;2022-07-06T08:11:22;24.00;58.60
44517;DHT22;30223;17.182;-96.766;2022-07-06T08:13:49;24.00;58.60
44517;DHT22;30223;17.182;-96.766;2022-07-06T08:16:15;23.90;58.50
44517;DHT22;30223;17.182;-96.766;2022-07-06T08:18:42;23.90;58.50
44517;DHT22;30223;17.182;-96.766;2022-07-06T08:21:08;23.90;58.50
44517;DHT22;30223;17.182;-96.766;2022-07-06T08:23:35;23.90;58.60
44517;DHT22;30223;17.182;-96.766;2022-07-06T08:26:02;23.90;58.50
44517;DHT22;30223;17.182;-96.766;2022-07-06T08:28:29;23.90;58.60
44517;DHT22;30223;17.182;-96.766;2022-07-06T08:30:57;23.90;58.60
44517;DHT22;30223;17.182;-96.766;2022-07-06T08:33:23;23.90;58.50
44517;DHT22;30223;17.182;-96.766;2022-07-06T08:35:50;23.90;58.50
44517;DHT22;30223;17.182;-96.766;2022-07-06T08:38:17;23.90;58.60
44517;DHT22;30223;17.182;-96.766;2022-07-06T08:40:46;23.90;58.60
44517;DHT22;30223;17.182;-96.766;2022-07-06T08:43:14;23.90;58.60
44517;DHT22;30223;17.182;-96.766;2022-07-06T08:45:41;23.80;58.50
44517;DHT22;30223;17.182;-96.766;2022-07-06T08:48:12;23.90;58.60
44517;DHT22;30223;17.182;-96.766;2022-07-06T08:50:38;23.80;58.50
44517;DHT22;30223;17.182;-96.766;2022-07-06T08:53:05;23.80;58.50
44517;DHT22;30223;17.182;-96.766;2022-07-06T08:55:33;23.80;58.60
44517;DHT22;30223;17.182;-96.766;2022-07-06T08:58:00;23.80;58.50
44517;DHT22;30223;17.182;-96.766;2022-07-06T09:00:26;23.80;58.50
44517;DHT22;30223;17.182;-96.766;2022-07-06T09:02:53;23.80;58.60
44517;DHT22;30223;17.182;-96.766;2022-07-06T09:05:23;23.80;58.60
44517;DHT22;30223;17.182;-96.766;2022-07-06T09:07:51;23.70;58.50
44517;DHT22;30223;17.182;-96.766;2022-07-06T09:10:20;23.70;58.50
44517;DHT22;30223;17.182;-96.766;2022-07-06T09:12:47;23.70;58.60
44517;DHT22;30223;17.182;-96.766;2022-07-06T09:15:14;23.70;58.50
44517;DHT22;30223;17.182;-96.766;2022-07-06T09:17:42;23.70;58.60
44517;DHT22;30223;17.182;-96.766;2022-07-06T09:20:11;23.70;58.60
44517;DHT22;30223;17.182;-96.766;2022-07-06T09:22:38;23.70;58.60
44517;DHT22;30223;17.182;-96.766;2022-07-06T09:25:10;23.70;58.60
44517;DHT22;30223;17.182;-96.766;2022-07-06T09:27:39;23.70;58.60
44517;DHT22;30223;17.182;-96.766;2022-07-06T09:30:07;23.70;58.60
44517;DHT22;30223;17.182;-96.766;2022-07-06T09:32:45;23.70;58.60
44517;DHT22;30223;17.182;-96.766;2022-07-06T09:35:30;23.70;58.60
44517;DHT22;30223;17.182;-96.766;2022-07-06T09:38:15;23.60;58.50
44517;DHT22;30223;17.182;-96.766;2022-07-06T09:40:44;23.60;58.50
44517;DHT22;30223;17.182;-96.766;2022-07-06T09:45:45;23.60;58.60
44517;DHT22;30223;17.182;-96.766;2022-07-06T09:48:14;23.60;58.60
44517;DHT22;30223;17.182;-96.766;2022-07-06T09:50:45;23.60;58.60
44517;DHT22;30223;17.182;-96.766;2022-07-06T09:53:13;23.50;58.60
44517;DHT22;30223;17.182;-96.766;2022-07-06T09:55:45;23.50;58.60
44517;DHT22;30223;17.182;-96.766;2022-07-06T09:58:11;23.50;58.50
44517;DHT22;30223;17.182;-96.766;2022-07-06T10:00:38;23.50;59.10
44517;DHT22;30223;17.182;-96.766;2022-07-06T10:03:06;23.50;58.60
44517;DHT22;30223;17.182;-96.766;2022-07-06T10:05:39;23.50;58.60
44517;DHT22;30223;17.182;-96.766;2022-07-06T10:08:06;23.40;58.50
44517;DHT22;30223;17.182;-96.766;2022-07-06T10:10:37;23.50;58.50
44517;DHT22;30223;17.182;-96.766;2022-07-06T10:13:04;23.40;58.50
44517;DHT22;30223;17.182;-96.766;2022-07-06T10:15:36;23.40;58.50
44517;DHT22;30223;17.182;-96.766;2022-07-06T10:18:05;23.40;58.50
44517;DHT22;30223;17.182;-96.766;2022-07-06T10:20:33;23.40;58.60
44517;DHT22;30223;17.182;-96.766;2022-07-06T10:23:04;23.40;58.50
44517;DHT22;30223;17.182;-96.766;2022-07-06T10:25:32;23.40;58.60
44517;DHT22;30223;17.182;-96.766;2022-07-06T10:28:00;23.40;58.50
44517;DHT22;30223;17.182;-96.766;2022-07-06T10:30:28;23.40;58.60
44517;DHT22;30223;17.182;-96.766;2022-07-06T10:32:56;23.30;58.50
44517;DHT22;30223;17.182;-96.766;2022-07-06T10:35:25;23.40;58.60
44517;DHT22;30223;17.182;-96.766;2022-07-06T10:38:05;23.30;58.50
44517;DHT22;30223;17.182;-96.766;2022-07-06T10:40:34;23.30;58.50
44517;DHT22;30223;17.182;-96.766;2022-07-06T10:43:18;23.30;58.60
44517;DHT22;30223;17.182;-96.766;2022-07-06T10:50:39;23.30;58.60
44517;DHT22;30223;17.182;-96.766;2022-07-06T10:53:17;23.30;58.60
44517;DHT22;30223;17.182;-96.766;2022-07-06T10:55:46;23.20;58.50
44517;DHT22;30223;17.182;-96.766;2022-07-06T10:58:39;23.20;58.50
44517;DHT22;30223;17.182;-96.766;2022-07-06T11:01:10;23.20;58.50
44517;DHT22;30223;17.182;-96.766;2022-07-06T11:03:48;23.20;58.50
44517;DHT22;30223;17.182;-96.766;2022-07-06T11:06:16;23.20;58.60
44517;DHT22;30223;17.182;-96.766;2022-07-06T11:08:50;23.20;58.60
44517;DHT22;30223;17.182;-96.766;2022-07-06T11:11:41;23.10;58.50
44517;DHT22;30223;17.182;-96.766;2022-07-06T11:14:15;23.10;58.50
44517;DHT22;30223;17.182;-96.766;2022-07-06T11:19:20;23.10;58.60
44517;DHT22;30223;17.182;-96.766;2022-07-06T11:21:50;23.10;58.60
44517;DHT22;30223;17.182;-96.766;2022-07-06T11:24:22;23.10;58.60
44517;DHT22;30223;17.182;-96.766;2022-07-06T11:26:51;23.10;58.60
44517;DHT22;30223;17.182;-96.766;2022-07-06T11:29:20;23.00;58.50
44517;DHT22;30223;17.182;-96.766;2022-07-06T11:31:49;23.00;58.50
44517;DHT22;30223;17.182;-96.766;2022-07-06T11:34:30;23.00;58.70
44517;DHT22;30223;17.182;-96.766;2022-07-06T11:36:58;23.00;58.50
44517;DHT22;30223;17.182;-96.766;2022-07-06T11:39:38;23.00;58.50
44517;DHT22;30223;17.182;-96.766;2022-07-06T11:42:13;23.00;58.50
44517;DHT22;30223;17.182;-96.766;2022-07-06T11:44:41;22.90;58.50
44517;DHT22;30223;17.182;-96.766;2022-07-06T11:47:09;23.00;58.60
44517;DHT22;30223;17.182;-96.766;2022-07-06T11:49:38;22.90;58.50
44517;DHT22;30223;17.182;-96.766;2022-07-06T11:52:08;22.90;58.50
44517;DHT22;30223;17.182;-96.766;2022-07-06T11:54:36;22.90;58.50
44517;DHT22;30223;17.182;-96.766;2022-07-06T11:57:03;22.90;58.50
44517;DHT22;30223;17.182;-96.766;2022-07-06T11:59:34;22.90;58.50
44517;DHT22;30223;17.182;-96.766;2022-07-06T12:02:09;22.80;58.40
44517;DHT22;30223;17.182;-96.766;2022-07-06T12:04:44;22.80;58.50
44517;DHT22;30223;17.182;-96.766;2022-07-06T12:07:12;22.80;58.40
44517;DHT22;30223;17.182;-96.766;2022-07-06T12:09:41;22.80;58.50
44517;DHT22;30223;17.182;-96.766;2022-07-06T12:12:09;22.80;58.50
44517;DHT22;30223;17.182;-96.766;2022-07-06T12:14:39;22.80;58.40
44517;DHT22;30223;17.182;-96.766;2022-07-06T12:17:07;22.70;58.40
44517;DHT22;30223;17.182;-96.766;2022-07-06T12:19:35;22.70;58.40
44517;DHT22;30223;17.182;-96.766;2022-07-06T12:22:03;22.70;58.40
44517;DHT22;30223;17.182;-96.766;2022-07-06T12:24:31;22.70;59.10
44517;DHT22;30223;17.182;-96.766;2022-07-06T12:27:09;22.70;58.50
44517;DHT22;30223;17.182;-96.766;2022-07-06T12:29:36;22.70;58.40
44517;DHT22;30223;17.182;-96.766;2022-07-06T12:32:03;22.70;58.40
44517;DHT22;30223;17.182;-96.766;2022-07-06T12:34:31;22.60;58.40
44517;DHT22;30223;17.182;-96.766;2022-07-06T12:37:07;22.60;58.40
44517;DHT22;30223;17.182;-96.766;2022-07-06T12:39:47;22.60;58.40
44517;DHT22;30223;17.182;-96.766;2022-07-06T12:42:17;22.60;58.40
44517;DHT22;30223;17.182;-96.766;2022-07-06T12:44:48;22.60;58.40
44517;DHT22;30223;17.182;-96.766;2022-07-06T12:47:20;22.60;58.30
44517;DHT22;30223;17.182;-96.766;2022-07-06T12:50:08;22.60;58.30
44517;DHT22;30223;17.182;-96.766;2022-07-06T12:52:36;22.50;58.30
44517;DHT22;30223;17.182;-96.766;2022-07-06T12:55:05;22.50;58.30
44517;DHT22;30223;17.182;-96.766;2022-07-06T12:57:48;22.50;58.30
44517;DHT22;30223;17.182;-96.766;2022-07-06T13:00:18;22.50;58.20
44517;DHT22;30223;17.182;-96.766;2022-07-06T13:02:47;22.50;58.30
44517;DHT22;30223;17.182;-96.766;2022-07-06T13:05:15;22.50;58.30
44517;DHT22;30223;17.182;-96.766;2022-07-06T13:07:48;22.50;58.30
44517;DHT22;30223;17.182;-96.766;2022-07-06T13:10:16;22.50;58.30
44517;DHT22;30223;17.182;-96.766;2022-07-06T13:12:43;22.40;58.20
44517;DHT22;30223;17.182;-96.766;2022-07-06T13:15:10;22.40;58.30
44517;DHT22;30223;17.182;-96.766;2022-07-06T13:17:37;22.40;58.30
44517;DHT22;30223;17.182;-96.766;2022-07-06T13:20:08;22.40;58.30
44517;DHT22;30223;17.182;-96.766;2022-07-06T13:22:35;22.30;58.20
44517;DHT22;30223;17.182;-96.766;2022-07-06T13:25:02;22.40;58.30
44517;DHT22;30223;17.182;-96.766;2022-07-06T13:27:28;22.30;58.30
44517;DHT22;30223;17.182;-96.766;2022-07-06T13:29:56;22.30;58.30
44517;DHT22;30223;17.182;-96.766;2022-07-06T13:32:22;22.30;58.40
44517;DHT22;30223;17.182;-96.766;2022-07-06T13:34:49;22.30;58.40
44517;DHT22;30223;17.182;-96.766;2022-07-06T13:37:16;22.30;58.40
44517;DHT22;30223;17.182;-96.766;2022-07-06T13:39:43;22.30;58.40
44517;DHT22;30223;17.182;-96.766;2022-07-06T13:42:09;22.30;58.50
44517;DHT22;30223;17.182;-96.766;2022-07-06T13:44:36;22.30;58.50
44517;DHT22;30223;17.182;-96.766;2022-07-06T13:47:03;22.30;58.50
44517;DHT22;30223;17.182;-96.766;2022-07-06T13:49:30;22.20;58.40
44517;DHT22;30223;17.182;-96.766;2022-07-06T13:51:56;22.20;58.50
44517;DHT22;30223;17.182;-96.766;2022-07-06T13:54:30;22.20;58.50
44517;DHT22;30223;17.182;-96.766;2022-07-06T13:56:56;22.20;58.50
44517;DHT22;30223;17.182;-96.766;2022-07-06T13:59:23;22.20;58.50
44517;DHT22;30223;17.182;-96.766;2022-07-06T14:01:50;22.20;58.50
44517;DHT22;30223;17.182;-96.766;2022-07-06T14:04:16;22.20;58.50
44517;DHT22;30223;17.182;-96.766;2022-07-06T14:06:43;22.20;58.50
44517;DHT22;30223;17.182;-96.766;2022-07-06T14:09:09;22.20;58.50
44517;DHT22;30223;17.182;-96.766;2022-07-06T14:11:36;22.20;58.50
44517;DHT22;30223;17.182;-96.766;2022-07-06T14:14:03;22.20;58.50
44517;DHT22;30223;17.182;-96.766;2022-07-06T14:16:34;22.20;58.50
44517;DHT22;30223;17.182;-96.766;2022-07-06T14:19:01;22.20;58.40
44517;DHT22;30223;17.182;-96.766;2022-07-06T14:21:28;22.20;58.50
44517;DHT22;30223;17.182;-96.766;2022-07-06T14:23:54;22.20;58.50
44517;DHT22;30223;17.182;-96.766;2022-07-06T14:26:21;22.20;58.40
44517;DHT22;30223;17.182;-96.766;2022-07-06T14:28:47;22.20;58.50
44517;DHT22;30223;17.182;-96.766;2022-07-06T14:31:14;22.20;58.50
44517;DHT22;30223;17.182;-96.766;2022-07-06T14:33:41;22.20;58.50
44517;DHT22;30223;17.182;-96.766;2022-07-06T14:36:07;22.20;58.50
44517;DHT22;30223;17.182;-96.766;2022-07-06T14:38:34;22.20;58.50
44517;DHT22;30223;17.182;-96.766;2022-07-06T14:41:00;22.20;58.50
44517;DHT22;30223;17.182;-96.766;2022-07-06T14:43:27;22.30;58.50
44517;DHT22;30223;17.182;-96.766;2022-07-06T14:45:54;22.20;58.50
44517;DHT22;30223;17.182;-96.766;2022-07-06T14:48:20;22.20;58.50
44517;DHT22;30223;17.182;-96.766;2022-07-06T14:50:47;22.20;58.50
44517;DHT22;30223;17.182;-96.766;2022-07-06T14:53:13;22.30;58.50
44517;DHT22;30223;17.182;-96.766;2022-07-06T14:55:40;22.20;58.40
44517;DHT22;30223;17.182;-96.766;2022-07-06T14:58:07;22.30;58.50
44517;DHT22;30223;17.182;-96.766;2022-07-06T15:00:33;22.30;58.40
44517;DHT22;30223;17.182;-96.766;2022-07-06T15:03:00;22.30;58.40
44517;DHT22;30223;17.182;-96.766;2022-07-06T15:05:26;22.30;58.40
44517;DHT22;30223;17.182;-96.766;2022-07-06T15:07:53;22.30;58.40
44517;DHT22;30223;17.182;-96.766;2022-07-06T15:10:20;22.40;58.40
44517;DHT22;30223;17.182;-96.766;2022-07-06T15:12:46;22.40;58.40
44517;DHT22;30223;17.182;-96.766;2022-07-06T15:15:13;22.40;58.40
44517;DHT22;30223;17.182;-96.766;2022-07-06T15:17:40;22.40;58.40
44517;DHT22;30223;17.182;-96.766;2022-07-06T15:20:07;22.40;58.50